Time;durP1;ratioP1;P1;durP2;ratioP2;P2;SDS_P1;SDS_P2;PMS_P1;PMS_P2;Temp;Humidity;BMP_temperature;BMP_pressure;BME280_temperature;BME280_humidity;BME280_pressure;Samples;Min_cycle;Max_cycle;Signal;HPM_P1;HPM_P2
2022/11/26 00:01:14;;;;;;;12.13;6.68;;;;;;;;;;5050342;28;20494;-83
2022/11/26 00:03:41;;;;;;;9.77;6.30;;;;;;;;;;5053794;28;20028;-83
2022/11/26 00:06:23;;;;;;;10.52;6.63;;;;;;;;;;5043883;28;20055;-83
2022/11/26 00:08:49;;;;;;;13.35;7.05;;;;;;;;;;5040016;28;20109;-83
2022/11/26 00:11:15;;;;;;;12.35;6.90;;;;;;;;;;5043207;28;20020;-83
2022/11/26 00:13:42;;;;;;;10.40;6.60;;;;;;;;;;5052961;28;20495;-83
2022/11/26 00:16:12;;;;;;;10.38;6.65;;;;;;;;;;5052829;28;20057;-84
2022/11/26 00:18:38;;;;;;;12.98;7.28;;;;;;;;;;5042051;28;20021;-83
2022/11/26 00:21:06;;;;;;;12.90;7.22;;;;;;;;;;5040899;28;20028;-83
2022/11/26 00:23:32;;;;;;;14.77;6.22;;;;;;;;;;5051532;28;20484;-83
2022/11/26 00:26:03;;;;;;;11.60;6.80;;;;;;;;;;5042162;28;20111;-83
2022/11/26 00:28:36;;;;;;;11.95;6.28;;;;;;;;;;5059162;28;20021;-83
2022/11/26 00:31:06;;;;;;;13.55;7.38;;;;;;;;;;5050654;28;20021;-83
2022/11/26 00:33:33;;;;;;;14.60;7.32;;;;;;;;;;5049052;28;20427;-83
2022/11/26 00:36:01;;;;;;;14.35;6.50;;;;;;;;;;5062780;28;20025;-83
2022/11/26 00:38:29;;;;;;;12.95;6.82;;;;;;;;;;5054997;28;20036;-83
2022/11/26 00:40:55;;;;;;;13.70;6.90;;;;;;;;;;5060380;28;20524;-83
2022/11/26 00:43:21;;;;;;;10.95;5.93;;;;;;;;;;5054613;28;20125;-83
2022/11/26 00:45:49;;;;;;;11.98;6.53;;;;;;;;;;5040415;28;20506;-83
2022/11/26 00:48:15;;;;;;;13.80;6.13;;;;;;;;;;5055347;28;20040;-83
2022/11/26 00:50:49;;;;;;;13.85;7.80;;;;;;;;;;5058512;28;20017;-83
2022/11/26 00:53:16;;;;;;;12.75;6.70;;;;;;;;;;5055846;28;20025;-83
2022/11/26 00:55:47;;;;;;;15.38;6.75;;;;;;;;;;5038995;28;20029;-83
2022/11/26 00:58:27;;;;;;;13.98;6.80;;;;;;;;;;5037378;28;20052;-83
2022/11/26 01:00:54;;;;;;;12.05;6.60;;;;;;;;;;5055962;28;20013;-83
2022/11/26 01:03:20;;;;;;;14.52;7.80;;;;;;;;;;5053280;28;20052;-83
2022/11/26 01:05:48;;;;;;;13.73;7.18;;;;;;;;;;5053518;28;20043;-83
2022/11/26 01:08:31;;;;;;;14.93;7.15;;;;;;;;;;5057500;28;20069;-83
2022/11/26 01:10:58;;;;;;;11.88;6.57;;;;;;;;;;5055749;28;20028;-83
2022/11/26 01:13:24;;;;;;;13.27;7.30;;;;;;;;;;5052029;28;20017;-83
2022/11/26 01:15:50;;;;;;;12.32;7.40;;;;;;;;;;5048175;28;20026;-83
2022/11/26 01:18:18;;;;;;;11.50;6.50;;;;;;;;;;5036829;28;20029;-83
2022/11/26 01:20:45;;;;;;;12.63;6.55;;;;;;;;;;5051526;28;20091;-84
2022/11/26 01:23:12;;;;;;;12.68;6.65;;;;;;;;;;5053627;28;20040;-83
2022/11/26 01:25:38;;;;;;;12.63;6.00;;;;;;;;;;5043240;28;20057;-83
2022/11/26 01:28:04;;;;;;;10.43;5.45;;;;;;;;;;5036814;28;20480;-83
2022/11/26 01:30:32;;;;;;;10.25;5.53;;;;;;;;;;5036462;28;20029;-83
2022/11/26 01:32:59;;;;;;;11.05;5.20;;;;;;;;;;5033687;28;20022;-83
2022/11/26 01:35:27;;;;;;;8.98;5.82;;;;;;;;;;5048844;28;20547;-83
2022/11/26 01:37:53;;;;;;;11.93;5.50;;;;;;;;;;5056303;28;20028;-83
2022/11/26 01:40:25;;;;;;;10.65;5.22;;;;;;;;;;5055825;28;20041;-83
2022/11/26 01:43:10;;;;;;;10.38;5.88;;;;;;;;;;5038216;28;20108;-83
2022/11/26 01:45:37;;;;;;;11.65;5.90;;;;;;;;;;5051807;28;20033;-83
2022/11/26 01:48:12;;;;;;;11.68;6.45;;;;;;;;;;5057017;28;20489;-83
2022/11/26 01:50:47;;;;;;;10.95;6.13;;;;;;;;;;5053337;28;20029;-83
2022/11/26 01:53:40;;;;;;;12.40;6.60;;;;;;;;;;5044526;28;20479;-83
2022/11/26 01:56:26;;;;;;;12.38;6.07;;;;;;;;;;4957288;28;20121;-83
2022/11/26 01:58:58;;;;;;;14.35;7.00;;;;;;;;;;4964549;28;20140;-83
2022/11/26 02:01:24;;;;;;;13.55;7.30;;;;;;;;;;4954843;28;20147;-83
2022/11/26 02:04:13;;;;;;;14.63;7.55;;;;;;;;;;4957773;28;20027;-83
2022/11/26 02:06:40;;;;;;;14.88;7.93;;;;;;;;;;4953911;28;20039;-83
2022/11/26 02:09:07;;;;;;;16.98;8.10;;;;;;;;;;4975702;28;20051;-83
2022/11/26 02:11:34;;;;;;;12.38;7.40;;;;;;;;;;4973714;28;20035;-82
2022/11/26 02:14:02;;;;;;;14.40;7.75;;;;;;;;;;4948192;28;20460;-83
2022/11/26 02:16:36;;;;;;;12.73;7.50;;;;;;;;;;4962706;28;20102;-83
2022/11/26 02:19:20;;;;;;;15.57;7.55;;;;;;;;;;4970115;28;20537;-83
2022/11/26 02:21:52;;;;;;;13.95;8.10;;;;;;;;;;4963555;28;20046;-83
2022/11/26 02:24:31;;;;;;;12.35;7.13;;;;;;;;;;4969141;28;20114;-83
2022/11/26 02:27:10;;;;;;;11.85;7.00;;;;;;;;;;4946659;28;20038;-83
2022/11/26 02:29:59;;;;;;;10.93;7.18;;;;;;;;;;4977309;28;20397;-84
2022/11/26 02:32:48;;;;;;;14.38;7.00;;;;;;;;;;4981979;28;20038;-84
2022/11/26 02:35:14;;;;;;;12.18;7.50;;;;;;;;;;5037857;28;20030;-83
2022/11/26 02:37:47;;;;;;;16.15;8.05;;;;;;;;;;5052408;28;20036;-83
2022/11/26 02:40:13;;;;;;;13.82;8.02;;;;;;;;;;5036543;28;20038;-83
2022/11/26 02:42:39;;;;;;;14.18;7.68;;;;;;;;;;5053751;28;20116;-83
2022/11/26 02:45:10;;;;;;;12.38;7.18;;;;;;;;;;5037782;28;20077;-83
2022/11/26 02:47:38;;;;;;;12.73;8.07;;;;;;;;;;5040417;28;20049;-83
2022/11/26 02:50:07;;;;;;;15.30;8.68;;;;;;;;;;5041138;28;20021;-83
2022/11/26 02:52:34;;;;;;;10.80;7.22;;;;;;;;;;5052799;28;20420;-82
2022/11/26 02:55:01;;;;;;;11.48;7.38;;;;;;;;;;5058915;28;20032;-84
2022/11/26 02:57:29;;;;;;;14.07;7.90;;;;;;;;;;5048798;28;20064;-84
2022/11/26 02:59:55;;;;;;;12.77;7.85;;;;;;;;;;5057967;28;20025;-83
2022/11/26 03:02:24;;;;;;;13.45;7.70;;;;;;;;;;5041215;28;20483;-83
2022/11/26 03:04:52;;;;;;;15.57;8.18;;;;;;;;;;5056880;28;20025;-83
2022/11/26 03:07:19;;;;;;;13.73;7.72;;;;;;;;;;5059042;28;20036;-84
2022/11/26 03:09:56;;;;;;;14.18;7.95;;;;;;;;;;5052992;28;20492;-83
2022/11/26 03:12:22;;;;;;;15.25;8.02;;;;;;;;;;5052385;28;20025;-84
2022/11/26 03:14:48;;;;;;;14.73;8.55;;;;;;;;;;5049975;28;20041;-83
2022/11/26 03:17:14;;;;;;;15.70;8.43;;;;;;;;;;5038733;28;20026;-83
2022/11/26 03:19:40;;;;;;;15.90;8.35;;;;;;;;;;5038536;28;20022;-84
2022/11/26 03:22:07;;;;;;;14.90;9.35;;;;;;;;;;5039556;28;20495;-83
2022/11/26 03:24:33;;;;;;;16.25;7.97;;;;;;;;;;5042547;28;20426;-83
2022/11/26 03:26:59;;;;;;;12.82;7.55;;;;;;;;;;5055178;28;20036;-84
2022/11/26 03:29:25;;;;;;;15.45;9.32;;;;;;;;;;5059641;28;20071;-84
2022/11/26 03:31:51;;;;;;;16.63;9.02;;;;;;;;;;5056078;28;20029;-84
2022/11/26 03:34:17;;;;;;;15.90;8.73;;;;;;;;;;5038352;28;20028;-84
2022/11/26 03:36:43;;;;;;;16.65;8.77;;;;;;;;;;5038093;28;20096;-83
2022/11/26 03:39:09;;;;;;;13.63;8.85;;;;;;;;;;5052222;28;20063;-85
2022/11/26 03:41:35;;;;;;;15.63;8.07;;;;;;;;;;5057506;28;20029;-84
2022/11/26 03:44:01;;;;;;;15.98;8.55;;;;;;;;;;5057380;28;20025;-83
2022/11/26 03:46:27;;;;;;;15.23;9.38;;;;;;;;;;5044599;28;20045;-83
2022/11/26 03:48:53;;;;;;;14.93;8.88;;;;;;;;;;5039299;28;20029;-83
2022/11/26 03:51:19;;;;;;;14.93;8.57;;;;;;;;;;5037923;28;20029;-84
2022/11/26 03:53:46;;;;;;;13.77;8.75;;;;;;;;;;5037720;28;20022;-84
2022/11/26 03:56:12;;;;;;;14.23;9.48;;;;;;;;;;5051022;28;20052;-84
2022/11/26 03:58:38;;;;;;;16.92;9.75;;;;;;;;;;5057008;28;20070;-83
2022/11/26 04:01:10;;;;;;;15.20;9.93;;;;;;;;;;5049435;28;20096;-85
2022/11/26 04:03:36;;;;;;;14.20;9.30;;;;;;;;;;5038795;28;20114;-83
2022/11/26 04:06:03;;;;;;;15.50;8.45;;;;;;;;;;5048511;28;20398;-83
2022/11/26 04:08:29;;;;;;;17.95;10.07;;;;;;;;;;5044900;28;20032;-83
2022/11/26 04:10:55;;;;;;;17.08;9.68;;;;;;;;;;5040105;28;20025;-84
2022/11/26 04:13:21;;;;;;;17.77;10.32;;;;;;;;;;5058858;28;20032;-84
2022/11/26 04:15:47;;;;;;;15.65;9.38;;;;;;;;;;5039828;28;20029;-84
2022/11/26 04:18:13;;;;;;;17.77;10.30;;;;;;;;;;5051041;28;20280;-84
2022/11/26 04:20:39;;;;;;;17.02;9.18;;;;;;;;;;5060814;28;20422;-84
2022/11/26 04:23:05;;;;;;;17.63;10.07;;;;;;;;;;5055305;28;20175;-85
2022/11/26 04:25:31;;;;;;;16.65;9.50;;;;;;;;;;5046498;28;20044;-84
2022/11/26 04:27:57;;;;;;;16.75;9.77;;;;;;;;;;5046742;28;20063;-84
2022/11/26 04:30:23;;;;;;;17.02;10.80;;;;;;;;;;5053127;28;20041;-84
2022/11/26 04:32:49;;;;;;;15.85;8.90;;;;;;;;;;5038175;28;20029;-83
2022/11/26 04:35:16;;;;;;;18.45;9.60;;;;;;;;;;5043548;28;20026;-84
2022/11/26 04:37:42;;;;;;;17.15;10.00;;;;;;;;;;5037276;28;20188;-83
2022/11/26 04:40:08;;;;;;;17.27;9.85;;;;;;;;;;5037389;28;20057;-84
2022/11/26 04:42:34;;;;;;;17.98;9.40;;;;;;;;;;5057219;28;20025;-84
2022/11/26 04:45:00;;;;;;;17.38;9.30;;;;;;;;;;5043758;28;20041;-84
2022/11/26 04:47:26;;;;;;;16.85;9.32;;;;;;;;;;5041554;28;20037;-84
2022/11/26 04:49:52;;;;;;;19.38;9.90;;;;;;;;;;5041165;28;20048;-84
2022/11/26 04:52:18;;;;;;;14.85;9.13;;;;;;;;;;5055290;28;20035;-84
2022/11/26 04:54:44;;;;;;;13.85;8.43;;;;;;;;;;5053839;28;20542;-84
2022/11/26 04:57:10;;;;;;;14.23;8.45;;;;;;;;;;5076987;28;20088;-85
2022/11/26 04:59:36;;;;;;;14.35;8.50;;;;;;;;;;5058950;28;20095;-84
2022/11/26 05:02:02;;;;;;;16.30;8.27;;;;;;;;;;5036246;28;20088;-84
2022/11/26 05:04:28;;;;;;;13.50;8.60;;;;;;;;;;5049561;28;20021;-83
2022/11/26 05:06:55;;;;;;;13.13;7.75;;;;;;;;;;5037098;28;20037;-83
2022/11/26 05:09:21;;;;;;;13.77;7.72;;;;;;;;;;5048952;28;20028;-84
2022/11/26 05:11:47;;;;;;;13.05;7.53;;;;;;;;;;5054084;28;20017;-84
2022/11/26 05:14:13;;;;;;;12.88;7.47;;;;;;;;;;5036521;28;20120;-84
2022/11/26 05:16:39;;;;;;;13.18;6.95;;;;;;;;;;5055373;28;20071;-84
2022/11/26 05:19:05;;;;;;;13.60;7.78;;;;;;;;;;5053127;28;20495;-84
2022/11/26 05:21:31;;;;;;;13.70;8.15;;;;;;;;;;5039012;28;20490;-84
2022/11/26 05:23:57;;;;;;;12.82;7.20;;;;;;;;;;5055062;28;20055;-83
2022/11/26 05:26:23;;;;;;;13.73;7.63;;;;;;;;;;5046452;28;20083;-83
2022/11/26 05:28:49;;;;;;;12.73;7.32;;;;;;;;;;5039208;28;20523;-84
2022/11/26 05:31:15;;;;;;;13.93;7.60;;;;;;;;;;5047062;28;20021;-84
2022/11/26 05:33:41;;;;;;;13.05;7.30;;;;;;;;;;5050764;28;20028;-84
2022/11/26 05:36:07;;;;;;;13.20;7.57;;;;;;;;;;5042876;28;20117;-85
2022/11/26 05:38:33;;;;;;;12.25;7.32;;;;;;;;;;5050704;28;20459;-84
2022/11/26 05:40:59;;;;;;;11.55;6.30;;;;;;;;;;5066954;28;20061;-85
2022/11/26 05:43:25;;;;;;;13.20;7.53;;;;;;;;;;5055754;28;20044;-84
2022/11/26 05:45:51;;;;;;;13.10;7.50;;;;;;;;;;5056049;28;20079;-84
2022/11/26 05:48:17;;;;;;;12.35;7.35;;;;;;;;;;5048456;28;20108;-84
2022/11/26 05:50:43;;;;;;;12.07;7.10;;;;;;;;;;5037504;28;20088;-84
2022/11/26 05:53:09;;;;;;;13.68;7.03;;;;;;;;;;5039577;28;20032;-84
2022/11/26 05:55:35;;;;;;;12.15;6.30;;;;;;;;;;5035743;28;20033;-84
2022/11/26 05:58:01;;;;;;;11.80;6.60;;;;;;;;;;5041962;28;20476;-84
2022/11/26 06:00:27;;;;;;;9.98;6.00;;;;;;;;;;5036027;28;20087;-84
2022/11/26 06:02:53;;;;;;;11.90;6.70;;;;;;;;;;5037090;28;20022;-84
2022/11/26 06:05:19;;;;;;;10.23;6.00;;;;;;;;;;5035547;28;20373;-84
2022/11/26 06:07:45;;;;;;;10.27;5.70;;;;;;;;;;5049818;28;20487;-84
2022/11/26 06:10:12;;;;;;;11.50;5.68;;;;;;;;;;5037151;28;20495;-83
2022/11/26 06:12:38;;;;;;;10.70;6.45;;;;;;;;;;5036305;28;20112;-84
2022/11/26 06:15:04;;;;;;;9.98;5.60;;;;;;;;;;5045356;28;20024;-83
2022/11/26 06:17:30;;;;;;;10.30;4.85;;;;;;;;;;5052054;28;20119;-84
2022/11/26 06:19:56;;;;;;;9.40;4.55;;;;;;;;;;5064111;28;20103;-84
2022/11/26 06:22:22;;;;;;;10.27;5.03;;;;;;;;;;5039784;28;20101;-84
2022/11/26 06:24:48;;;;;;;10.20;5.95;;;;;;;;;;5038789;28;20026;-85
2022/11/26 06:27:14;;;;;;;9.43;5.22;;;;;;;;;;5039269;28;20026;-84
2022/11/26 06:29:40;;;;;;;10.43;5.13;;;;;;;;;;5041848;28;20562;-83
2022/11/26 06:32:06;;;;;;;13.73;5.07;;;;;;;;;;5046276;28;20022;-84
2022/11/26 06:34:32;;;;;;;9.25;4.57;;;;;;;;;;5039266;28;20057;-83
2022/11/26 06:36:58;;;;;;;10.85;5.47;;;;;;;;;;5039810;28;20104;-83
2022/11/26 06:39:24;;;;;;;10.40;5.60;;;;;;;;;;5041175;28;20104;-84
2022/11/26 06:41:50;;;;;;;9.20;5.47;;;;;;;;;;5041736;28;20484;-84
2022/11/26 06:44:16;;;;;;;11.10;6.18;;;;;;;;;;5038796;28;20075;-84
2022/11/26 06:46:42;;;;;;;12.15;6.82;;;;;;;;;;5039125;28;20041;-84
2022/11/26 06:49:08;;;;;;;10.48;5.75;;;;;;;;;;5048126;28;20476;-83
2022/11/26 06:51:34;;;;;;;11.18;6.15;;;;;;;;;;5042208;28;20028;-84
2022/11/26 06:54:00;;;;;;;13.85;7.38;;;;;;;;;;5038453;28;20044;-83
2022/11/26 06:56:26;;;;;;;11.77;6.80;;;;;;;;;;5039877;28;20468;-84
2022/11/26 06:58:53;;;;;;;11.38;6.35;;;;;;;;;;5054729;28;20025;-83
2022/11/26 07:01:25;;;;;;;12.02;7.40;;;;;;;;;;5044817;28;20029;-84
2022/11/26 07:03:51;;;;;;;11.38;6.55;;;;;;;;;;5038765;28;20045;-84
2022/11/26 07:06:24;;;;;;;12.60;6.13;;;;;;;;;;5037841;28;20033;-84
2022/11/26 07:08:51;;;;;;;9.80;5.25;;;;;;;;;;5038650;28;20026;-84
2022/11/26 07:11:18;;;;;;;11.27;5.72;;;;;;;;;;5041938;28;20053;-84
2022/11/26 07:13:44;;;;;;;11.70;5.93;;;;;;;;;;5039028;28;20037;-85
2022/11/26 07:16:10;;;;;;;12.50;6.18;;;;;;;;;;5057043;28;20025;-84
2022/11/26 07:18:36;;;;;;;11.25;5.65;;;;;;;;;;5055708;28;20025;-83
2022/11/26 07:21:06;;;;;;;11.18;6.22;;;;;;;;;;5040429;28;20021;-83
2022/11/26 07:23:32;;;;;;;9.48;4.78;;;;;;;;;;5038506;28;20025;-84
2022/11/26 07:25:59;;;;;;;11.77;5.93;;;;;;;;;;5050030;28;20025;-84
2022/11/26 07:28:25;;;;;;;10.50;5.45;;;;;;;;;;5058233;28;20032;-83
2022/11/26 07:30:51;;;;;;;12.25;5.88;;;;;;;;;;5049966;28;20033;-83
2022/11/26 07:33:17;;;;;;;12.38;7.05;;;;;;;;;;5043282;28;20082;-83
2022/11/26 07:35:43;;;;;;;13.10;7.10;;;;;;;;;;5052696;28;20021;-84
2022/11/26 07:38:09;;;;;;;12.18;7.15;;;;;;;;;;5051764;28;20021;-83
2022/11/26 07:40:35;;;;;;;11.15;6.25;;;;;;;;;;5051592;28;20028;-84
2022/11/26 07:43:01;;;;;;;13.23;6.57;;;;;;;;;;5055927;28;20029;-84
2022/11/26 07:45:27;;;;;;;13.00;6.65;;;;;;;;;;5049225;28;20051;-84
2022/11/26 07:47:53;;;;;;;12.63;6.95;;;;;;;;;;5040942;28;20033;-84
2022/11/26 07:50:19;;;;;;;12.40;7.07;;;;;;;;;;5047556;28;20914;-84
2022/11/26 07:52:45;;;;;;;12.07;5.80;;;;;;;;;;5059549;28;20098;-85
2022/11/26 07:55:11;;;;;;;10.32;6.00;;;;;;;;;;5056522;28;20013;-83
2022/11/26 07:57:37;;;;;;;10.88;6.10;;;;;;;;;;5076829;28;20096;-84
2022/11/26 08:00:03;;;;;;;11.30;6.65;;;;;;;;;;5047560;28;20044;-84
2022/11/26 08:02:29;;;;;;;12.15;6.38;;;;;;;;;;5050238;28;20037;-84
2022/11/26 08:04:55;;;;;;;10.75;6.03;;;;;;;;;;5061031;28;20035;-84
2022/11/26 08:07:21;;;;;;;12.27;6.30;;;;;;;;;;5052517;28;20025;-83
2022/11/26 08:09:47;;;;;;;15.60;6.88;;;;;;;;;;5053604;28;20029;-84
2022/11/26 08:12:13;;;;;;;11.32;6.78;;;;;;;;;;5043303;28;20076;-83
2022/11/26 08:14:39;;;;;;;11.00;6.63;;;;;;;;;;5043167;28;20017;-84
2022/11/26 08:17:05;;;;;;;11.68;6.03;;;;;;;;;;5039862;28;20112;-84
2022/11/26 08:19:31;;;;;;;11.23;6.65;;;;;;;;;;5052602;28;20559;-84
2022/11/26 08:21:57;;;;;;;14.68;7.95;;;;;;;;;;5050384;28;20064;-85
2022/11/26 08:24:23;;;;;;;13.75;8.00;;;;;;;;;;5056794;28;20210;-83
2022/11/26 08:26:50;;;;;;;13.35;7.25;;;;;;;;;;5047715;28;20090;-84
2022/11/26 08:29:16;;;;;;;13.02;7.18;;;;;;;;;;5050588;28;20076;-84
2022/11/26 08:31:43;;;;;;;16.95;8.88;;;;;;;;;;5056678;28;20021;-83
2022/11/26 08:34:13;;;;;;;15.63;8.77;;;;;;;;;;5078849;28;20027;-84
2022/11/26 08:36:39;;;;;;;15.90;8.82;;;;;;;;;;5050069;28;20063;-83
2022/11/26 08:39:05;;;;;;;14.35;7.78;;;;;;;;;;5047346;28;20032;-84
2022/11/26 08:41:32;;;;;;;14.10;8.50;;;;;;;;;;5044018;28;20426;-84
2022/11/26 08:43:57;;;;;;;13.25;8.15;;;;;;;;;;5054800;28;20033;-85
2022/11/26 08:46:24;;;;;;;13.73;8.32;;;;;;;;;;5059077;28;20638;-84
2022/11/26 08:48:50;;;;;;;14.85;8.18;;;;;;;;;;5052449;28;20025;-84
2022/11/26 08:51:16;;;;;;;12.63;7.82;;;;;;;;;;5045392;28;20536;-84
2022/11/26 08:53:44;;;;;;;12.85;7.90;;;;;;;;;;5055923;28;20025;-84
2022/11/26 08:56:11;;;;;;;16.08;8.55;;;;;;;;;;5041064;28;20028;-84
2022/11/26 08:58:39;;;;;;;12.88;7.32;;;;;;;;;;5057292;28;20487;-84
2022/11/26 09:01:15;;;;;;;13.20;6.45;;;;;;;;;;5042298;28;20289;-84
2022/11/26 09:03:41;;;;;;;11.27;6.55;;;;;;;;;;5038671;28;20239;-84
2022/11/26 09:06:08;;;;;;;14.95;7.80;;;;;;;;;;5040189;28;20044;-85
2022/11/26 09:09:11;;;;;;;12.48;7.63;;;;;;;;;;5037865;28;20036;-85
2022/11/26 09:11:21;;;;;;;12.82;6.63;;;;;;;;;;5048577;28;20084;-85
2022/11/26 09:13:47;;;;;;;12.45;7.10;;;;;;;;;;5057460;28;20105;-84
2022/11/26 09:16:13;;;;;;;14.05;7.82;;;;;;;;;;5057912;28;20068;-84
2022/11/26 09:18:39;;;;;;;11.93;7.13;;;;;;;;;;5059275;28;20113;-84
2022/11/26 09:21:05;;;;;;;15.45;8.40;;;;;;;;;;5057622;28;20158;-84
2022/11/26 09:23:31;;;;;;;11.10;6.10;;;;;;;;;;5060581;28;20040;-85
2022/11/26 09:25:57;;;;;;;10.80;6.47;;;;;;;;;;5047375;28;20037;-85
2022/11/26 09:28:23;;;;;;;10.50;6.22;;;;;;;;;;5037905;28;20025;-84
2022/11/26 09:30:49;;;;;;;11.35;7.60;;;;;;;;;;5062132;28;20031;-84
2022/11/26 09:33:15;;;;;;;12.68;7.45;;;;;;;;;;5059058;28;20025;-84
2022/11/26 09:35:43;;;;;;;10.93;5.28;;;;;;;;;;5059317;28;20029;-84
2022/11/26 09:38:09;;;;;;;12.27;6.00;;;;;;;;;;5052509;28;20079;-84
2022/11/26 09:40:55;;;;;;;12.50;6.80;;;;;;;;;;5038673;28;20029;-85
2022/11/26 09:43:31;;;;;;;10.85;5.47;;;;;;;;;;5060068;28;20029;-84
2022/11/26 09:45:59;;;;;;;11.32;5.55;;;;;;;;;;5061810;28;20234;-84
2022/11/26 09:48:25;;;;;;;11.85;7.05;;;;;;;;;;5059368;28;20085;-84
2022/11/26 09:50:54;;;;;;;11.60;7.18;;;;;;;;;;5057857;28;20047;-84
2022/11/26 09:53:30;;;;;;;12.13;8.23;;;;;;;;;;5049214;28;20075;-83
2022/11/26 09:55:56;;;;;;;15.95;8.57;;;;;;;;;;5039648;28;20125;-84
2022/11/26 09:58:40;;;;;;;13.35;7.75;;;;;;;;;;5038128;28;20029;-83
2022/11/26 10:01:06;;;;;;;15.25;8.07;;;;;;;;;;5043013;28;20025;-84
2022/11/26 10:03:36;;;;;;;15.82;8.43;;;;;;;;;;5038591;28;20028;-84
2022/11/26 10:06:05;;;;;;;16.15;8.45;;;;;;;;;;5037745;28;20036;-84
2022/11/26 10:08:40;;;;;;;11.38;7.60;;;;;;;;;;5040513;28;20022;-84
2022/11/26 10:11:09;;;;;;;12.40;8.18;;;;;;;;;;5039240;28;20014;-84
2022/11/26 10:13:35;;;;;;;14.20;9.00;;;;;;;;;;5041541;28;20029;-84
2022/11/26 10:16:05;;;;;;;13.75;7.53;;;;;;;;;;5041616;28;20056;-84
2022/11/26 10:18:31;;;;;;;13.20;7.40;;;;;;;;;;5040407;28;20037;-84
2022/11/26 10:21:06;;;;;;;12.73;7.25;;;;;;;;;;5041050;28;20018;-85
2022/11/26 10:23:32;;;;;;;11.85;7.05;;;;;;;;;;5041391;28;20517;-84
2022/11/26 10:26:11;;;;;;;10.80;6.88;;;;;;;;;;5039587;28;20025;-84
2022/11/26 10:28:40;;;;;;;11.40;6.75;;;;;;;;;;5040161;28;20464;-84
2022/11/26 10:31:12;;;;;;;13.85;6.70;;;;;;;;;;5069742;28;20036;-83
2022/11/26 10:33:43;;;;;;;10.75;7.38;;;;;;;;;;5059502;28;20279;-84
2022/11/26 10:36:16;;;;;;;10.85;7.70;;;;;;;;;;5058851;28;20029;-83
2022/11/26 10:38:42;;;;;;;11.32;6.95;;;;;;;;;;5058445;28;20060;-84
2022/11/26 10:41:08;;;;;;;12.23;7.10;;;;;;;;;;5058215;28;20037;-84
2022/11/26 10:43:34;;;;;;;10.02;6.78;;;;;;;;;;5039700;28;20029;-84
2022/11/26 10:46:00;;;;;;;11.13;6.50;;;;;;;;;;5038224;28;20450;-84
2022/11/26 10:48:27;;;;;;;11.50;6.30;;;;;;;;;;5038397;28;20100;-84
2022/11/26 10:51:01;;;;;;;10.52;5.30;;;;;;;;;;5049694;28;20036;-85
2022/11/26 10:53:28;;;;;;;9.20;5.97;;;;;;;;;;5039231;28;20068;-84
2022/11/26 10:55:57;;;;;;;10.68;6.05;;;;;;;;;;5039456;28;20056;-84
2022/11/26 10:58:26;;;;;;;10.30;5.70;;;;;;;;;;5037313;28;20093;-84
2022/11/26 11:01:03;;;;;;;8.45;5.28;;;;;;;;;;5039244;28;20018;-84
2022/11/26 11:03:29;;;;;;;9.50;5.93;;;;;;;;;;5042395;28;20065;-84
2022/11/26 11:06:13;;;;;;;9.82;5.80;;;;;;;;;;5038411;28;20442;-86
2022/11/26 11:08:39;;;;;;;9.82;4.97;;;;;;;;;;5047924;28;20017;-84
2022/11/26 11:11:17;;;;;;;9.82;5.45;;;;;;;;;;5048796;28;20545;-84
2022/11/26 11:13:45;;;;;;;11.55;6.18;;;;;;;;;;5048422;28;20032;-86
2022/11/26 11:16:12;;;;;;;10.35;5.93;;;;;;;;;;5048483;28;20089;-85
2022/11/26 11:18:47;;;;;;;11.20;5.53;;;;;;;;;;5050335;28;20030;-84
2022/11/26 11:21:15;;;;;;;8.35;4.68;;;;;;;;;;5051628;28;20048;-84
2022/11/26 11:23:41;;;;;;;10.77;5.43;;;;;;;;;;5049888;28;20057;-85
2022/11/26 11:26:12;;;;;;;10.90;6.00;;;;;;;;;;5051308;28;20052;-84
2022/11/26 11:28:41;;;;;;;11.52;6.28;;;;;;;;;;5047551;28;20033;-84
2022/11/26 11:31:13;;;;;;;8.50;5.40;;;;;;;;;;5084396;28;20032;-84
2022/11/26 11:33:40;;;;;;;10.82;5.30;;;;;;;;;;5073767;28;20112;-84
2022/11/26 11:36:09;;;;;;;11.75;6.35;;;;;;;;;;5048861;28;20034;-83
2022/11/26 11:38:46;;;;;;;10.73;5.80;;;;;;;;;;5049919;28;20044;-84
2022/11/26 11:41:20;;;;;;;10.45;5.85;;;;;;;;;;5060923;28;20133;-84
2022/11/26 11:43:46;;;;;;;8.95;5.43;;;;;;;;;;5070352;28;20041;-84
2022/11/26 11:46:24;;;;;;;9.23;4.93;;;;;;;;;;5052800;28;20081;-84
2022/11/26 11:48:56;;;;;;;11.82;6.32;;;;;;;;;;5069180;28;20041;-84
2022/11/26 11:51:34;;;;;;;9.13;5.75;;;;;;;;;;5072130;28;20286;-84
2022/11/26 11:54:00;;;;;;;9.18;6.18;;;;;;;;;;5064351;28;20029;-84
2022/11/26 11:56:26;;;;;;;9.38;5.15;;;;;;;;;;5057332;28;20013;-84
2022/11/26 11:59:06;;;;;;;8.55;5.22;;;;;;;;;;5053166;28;20052;-84
2022/11/26 12:01:32;;;;;;;11.98;5.63;;;;;;;;;;5054311;28;20033;-85
2022/11/26 12:04:07;;;;;;;12.57;6.18;;;;;;;;;;5071407;28;20040;-84
2022/11/26 12:06:39;;;;;;;9.15;5.72;;;;;;;;;;5070859;28;20044;-84
2022/11/26 12:09:08;;;;;;;11.93;5.85;;;;;;;;;;5070875;28;20245;-85
2022/11/26 12:11:34;;;;;;;9.18;5.28;;;;;;;;;;5071107;28;20036;-85
2022/11/26 12:14:04;;;;;;;9.02;5.18;;;;;;;;;;5070737;28;20021;-85
2022/11/26 12:16:33;;;;;;;9.05;5.30;;;;;;;;;;5067906;28;20036;-84
2022/11/26 12:19:05;;;;;;;8.40;5.00;;;;;;;;;;5050243;28;20037;-85
2022/11/26 12:21:38;;;;;;;8.48;5.03;;;;;;;;;;5050729;28;20017;-85
2022/11/26 12:24:04;;;;;;;10.07;4.72;;;;;;;;;;5050162;28;20504;-84
2022/11/26 12:26:36;;;;;;;9.75;4.43;;;;;;;;;;5050373;28;20052;-86
2022/11/26 12:29:25;;;;;;;8.40;4.45;;;;;;;;;;5051212;28;20021;-84
2022/11/26 12:31:57;;;;;;;5.80;3.15;;;;;;;;;;5051246;28;20048;-84
2022/11/26 12:35:02;;;;;;;6.88;3.40;;;;;;;;;;5070985;28;20032;-83
2022/11/26 12:37:30;;;;;;;9.00;3.42;;;;;;;;;;4988280;28;20030;-83
2022/11/26 12:40:15;;;;;;;7.78;3.60;;;;;;;;;;5004257;28;20026;-84
2022/11/26 12:42:44;;;;;;;7.22;3.40;;;;;;;;;;5029378;28;20128;-84
2022/11/26 12:45:15;;;;;;;10.73;4.63;;;;;;;;;;5055694;28;20033;-84
2022/11/26 12:47:43;;;;;;;7.28;4.25;;;;;;;;;;5061666;28;20037;-84
2022/11/26 12:50:18;;;;;;;8.82;4.78;;;;;;;;;;5048901;28;20055;-84
2022/11/26 12:52:55;;;;;;;7.40;4.68;;;;;;;;;;5045507;28;20360;-85
2022/11/26 12:55:30;;;;;;;8.45;4.68;;;;;;;;;;5048767;28;20052;-86
2022/11/26 12:58:08;;;;;;;8.82;4.80;;;;;;;;;;5062155;28;20033;-85
2022/11/26 13:00:35;;;;;;;9.85;4.85;;;;;;;;;;5051612;28;20093;-85
2022/11/26 13:03:01;;;;;;;8.52;4.70;;;;;;;;;;5063254;28;20032;-84
2022/11/26 13:05:37;;;;;;;8.98;4.80;;;;;;;;;;5061917;28;20124;-84
2022/11/26 13:08:22;;;;;;;10.27;5.45;;;;;;;;;;5039837;28;20080;-84
2022/11/26 13:10:48;;;;;;;10.82;5.15;;;;;;;;;;5038406;28;20114;-84
2022/11/26 13:13:19;;;;;;;9.63;5.90;;;;;;;;;;5049628;28;20057;-84
2022/11/26 13:15:49;;;;;;;8.48;5.07;;;;;;;;;;5065111;28;20068;-82
2022/11/26 13:18:23;;;;;;;10.02;5.57;;;;;;;;;;5047643;28;20029;-84
2022/11/26 13:21:01;;;;;;;7.88;4.40;;;;;;;;;;5057622;28;20032;-84
2022/11/26 13:23:37;;;;;;;8.27;3.80;;;;;;;;;;5045632;28;20438;-84
2022/11/26 13:26:28;;;;;;;7.10;4.05;;;;;;;;;;5052892;28;20032;-83
2022/11/26 13:29:07;;;;;;;6.63;3.67;;;;;;;;;;5053785;28;20025;-84
2022/11/26 13:31:44;;;;;;;7.00;3.50;;;;;;;;;;5058950;28;20025;-84
2022/11/26 13:34:22;;;;;;;5.95;3.28;;;;;;;;;;5057454;28;20390;-83
2022/11/26 13:36:51;;;;;;;5.93;3.13;;;;;;;;;;5051664;28;20506;-83
2022/11/26 13:39:36;;;;;;;6.75;3.22;;;;;;;;;;5059079;28;20088;-83
2022/11/26 13:42:21;;;;;;;6.00;3.40;;;;;;;;;;5040849;28;20033;-84
2022/11/26 13:44:56;;;;;;;8.48;2.75;;;;;;;;;;5041586;28;20112;-84
2022/11/26 13:47:34;;;;;;;7.00;3.05;;;;;;;;;;5062338;28;20045;-84
2022/11/26 13:50:03;;;;;;;5.88;2.63;;;;;;;;;;5058187;28;20028;-84
2022/11/26 13:52:36;;;;;;;7.22;3.30;;;;;;;;;;5047693;28;20048;-83
2022/11/26 13:55:01;;;;;;;;;;;;;;;;;;5064837;28;20042;-83
2022/11/26 13:57:32;;;;;;;6.22;2.80;;;;;;;;;;5046431;28;20295;-84
2022/11/26 13:59:58;;;;;;;6.63;2.63;;;;;;;;;;5059598;28;20084;-84
2022/11/26 14:02:36;;;;;;;5.30;2.92;;;;;;;;;;5053168;28;20064;-84
2022/11/26 14:05:06;;;;;;;5.53;2.90;;;;;;;;;;5044593;28;20040;-85
2022/11/26 14:07:32;;;;;;;4.97;2.80;;;;;;;;;;5044753;28;20083;-85
2022/11/26 14:10:00;;;;;;;6.05;2.85;;;;;;;;;;5055653;28;20053;-85
2022/11/26 14:12:45;;;;;;;5.95;2.90;;;;;;;;;;5058070;28;20021;-84
2022/11/26 14:15:31;;;;;;;6.82;2.92;;;;;;;;;;5054134;28;20093;-84
2022/11/26 14:17:57;;;;;;;7.55;3.30;;;;;;;;;;5037398;28;20033;-84
2022/11/26 14:20:24;;;;;;;6.40;2.45;;;;;;;;;;5047463;28;20036;-85
2022/11/26 14:22:50;;;;;;;5.63;2.60;;;;;;;;;;5053551;28;20056;-84
2022/11/26 14:25:35;;;;;;;7.22;2.88;;;;;;;;;;5047935;28;20045;-85
2022/11/26 14:28:04;;;;;;;12.48;3.45;;;;;;;;;;5039844;28;20487;-83
2022/11/26 14:30:31;;;;;;;6.88;3.42;;;;;;;;;;5041008;28;20380;-84
2022/11/26 14:33:03;;;;;;;6.65;2.58;;;;;;;;;;5037454;28;20040;-83
2022/11/26 14:35:34;;;;;;;6.30;2.90;;;;;;;;;;5046671;28;20029;-83
2022/11/26 14:38:01;;;;;;;5.63;2.80;;;;;;;;;;5057218;28;20033;-84
2022/11/26 14:40:32;;;;;;;9.55;3.33;;;;;;;;;;5050342;28;20056;-84
2022/11/26 14:43:07;;;;;;;5.40;2.55;;;;;;;;;;5041908;28;20041;-83
2022/11/26 14:45:33;;;;;;;6.95;2.50;;;;;;;;;;5044926;28;20049;-84